createdAt,value
2022-09-12T00:01:41.136Z,2.60
2022-09-12T00:04:13.213Z,1.92
2022-09-12T00:06:46.528Z,3.28
2022-09-12T00:09:18.465Z,2.38
2022-09-12T00:11:50.396Z,4.20
2022-09-12T00:14:22.355Z,2.53
2022-09-12T00:16:58.139Z,3.20
2022-09-12T00:19:30.508Z,3.10
2022-09-12T00:22:04.043Z,2.28
2022-09-12T00:24:35.971Z,2.58
2022-09-12T00:27:07.947Z,2.10
2022-09-12T00:29:39.903Z,2.08
2022-09-12T00:32:11.839Z,3.70
2022-09-12T00:34:43.904Z,2.55
2022-09-12T00:37:17.207Z,2.10
2022-09-12T00:39:49.334Z,1.80
2022-09-12T00:42:21.266Z,1.77
2022-09-12T00:44:54.011Z,3.30
2022-09-12T00:47:28.324Z,2.28
2022-09-12T00:50:06.349Z,2.60
2022-09-12T00:52:44.879Z,2.60
2022-09-12T00:55:19.980Z,4.47
2022-09-12T00:57:55.930Z,2.35
2022-09-12T01:00:29.584Z,3.05
2022-09-12T01:03:04.645Z,2.08
2022-09-12T01:05:39.427Z,1.80
2022-09-12T01:08:13.079Z,3.97
2022-09-12T01:10:45.298Z,3.63
2022-09-12T01:13:17.697Z,2.72
2022-09-12T01:15:49.715Z,1.95
2022-09-12T01:18:29.835Z,2.03
2022-09-12T01:21:14.595Z,2.42
2022-09-12T01:24:23.717Z,2.80
2022-09-12T01:27:16.711Z,1.90
2022-09-12T01:30:25.215Z,2.40
2022-09-12T01:33:28.841Z,3.13
2022-09-12T01:36:28.098Z,3.85
2022-09-12T01:39:02.658Z,1.55
2022-09-12T01:41:43.843Z,1.60
2022-09-12T01:44:26.337Z,2.10
2022-09-12T01:47:05.520Z,6.00
2022-09-12T01:49:46.401Z,4.68
2022-09-12T01:52:22.576Z,1.70
2022-09-12T01:55:00.540Z,2.13
2022-09-12T01:57:36.593Z,1.75
2022-09-12T02:00:11.993Z,1.48
2022-09-12T02:02:52.020Z,1.70
2022-09-12T02:05:29.679Z,2.17
2022-09-12T02:08:07.137Z,2.45
2022-09-12T02:10:44.958Z,2.22
2022-09-12T02:13:23.324Z,1.30
2022-09-12T02:15:58.829Z,2.35
2022-09-12T02:18:34.140Z,3.15
2022-09-12T02:21:08.590Z,1.70
2022-09-12T02:23:45.923Z,1.73
2022-09-12T02:26:24.272Z,1.30
2022-09-12T02:28:57.788Z,3.20
2022-09-12T02:31:34.653Z,2.17
2022-09-12T02:34:15.060Z,2.90
2022-09-12T02:39:22.286Z,3.20
2022-09-12T02:41:57.229Z,1.80
2022-09-12T02:44:33.617Z,3.70
2022-09-12T02:47:09.998Z,2.30
2022-09-12T02:49:42.104Z,2.53
2022-09-12T02:52:15.621Z,3.80
2022-09-12T02:54:48.311Z,4.00
2022-09-12T02:57:23.115Z,3.50
2022-09-12T02:59:58.993Z,2.35
2022-09-12T03:02:44.699Z,2.40
2022-09-12T03:05:26.606Z,1.95
2022-09-12T03:08:32.154Z,2.80
2022-09-12T03:11:24.394Z,2.45
2022-09-12T03:14:07.828Z,7.18
2022-09-12T03:16:48.826Z,2.10
2022-09-12T03:19:27.201Z,1.55
2022-09-12T03:22:09.751Z,3.15
2022-09-12T03:24:51.023Z,2.47
2022-09-12T03:27:29.338Z,3.28
2022-09-12T03:30:01.925Z,2.60
2022-09-12T03:32:41.176Z,3.75
2022-09-12T03:35:14.680Z,4.25
2022-09-12T03:37:47.674Z,2.25
2022-09-12T03:40:21.364Z,3.63
2022-09-12T03:42:53.745Z,2.25
2022-09-12T03:45:25.821Z,3.05
2022-09-12T03:47:58.283Z,2.92
2022-09-12T03:50:30.502Z,3.20
2022-09-12T03:53:02.653Z,2.08
2022-09-12T03:55:36.418Z,3.92
2022-09-12T03:58:08.367Z,2.00
2022-09-12T04:00:41.024Z,2.05
2022-09-12T04:03:12.964Z,2.13
2022-09-12T04:05:45.162Z,3.83
2022-09-12T04:08:17.131Z,3.33
2022-09-12T04:10:50.448Z,3.03
2022-09-12T04:13:22.345Z,2.50
2022-09-12T04:15:57.916Z,4.38
2022-09-12T04:18:30.196Z,3.70
2022-09-12T04:21:04.675Z,4.53
2022-09-12T04:23:36.822Z,3.25
2022-09-12T04:26:11.081Z,4.13
2022-09-12T04:28:43.614Z,4.07
2022-09-12T04:31:22.705Z,3.75
2022-09-12T04:33:55.789Z,4.93
2022-09-12T04:36:28.954Z,6.88
2022-09-12T04:39:01.888Z,4.63
2022-09-12T04:41:36.969Z,6.38
2022-09-12T04:44:11.911Z,2.53
2022-09-12T04:46:45.911Z,3.60
2022-09-12T04:49:19.396Z,2.55
2022-09-12T04:51:54.969Z,3.10
2022-09-12T04:54:26.941Z,5.57
2022-09-12T04:57:00.429Z,6.13
2022-09-12T04:59:32.372Z,4.70
2022-09-12T05:02:04.385Z,3.67
2022-09-12T05:04:36.451Z,5.22
2022-09-12T05:07:08.379Z,3.97
2022-09-12T05:09:40.383Z,3.97
2022-09-12T05:12:14.636Z,3.00
2022-09-12T05:14:46.593Z,4.13
2022-09-12T05:17:18.807Z,5.25
2022-09-12T05:19:50.952Z,5.35
2022-09-12T05:22:22.926Z,3.47
2022-09-12T05:24:54.834Z,1.80
2022-09-12T05:27:28.199Z,2.83
2022-09-12T05:30:00.181Z,3.83
2022-09-12T05:32:32.575Z,3.30
2022-09-12T05:35:05.157Z,4.07
2022-09-12T05:37:37.381Z,2.60
2022-09-12T05:40:10.182Z,8.13
2022-09-12T05:42:43.645Z,4.38
2022-09-12T05:45:16.057Z,2.63
2022-09-12T05:47:48.035Z,2.95
2022-09-12T05:50:20.287Z,2.30
2022-09-12T05:52:52.215Z,3.63
2022-09-12T05:55:24.455Z,2.38
2022-09-12T05:57:57.819Z,2.72
2022-09-12T06:00:33.406Z,1.98
2022-09-12T06:03:05.622Z,2.00
2022-09-12T06:05:37.534Z,2.25
2022-09-12T06:08:09.453Z,2.97
2022-09-12T06:10:41.481Z,2.22
2022-09-12T06:13:14.864Z,3.88
2022-09-12T06:15:46.879Z,2.45
2022-09-12T06:18:18.917Z,2.20
2022-09-12T06:20:50.892Z,2.55
2022-09-12T06:23:22.896Z,2.15
2022-09-12T06:25:55.209Z,3.42
2022-09-12T06:28:29.070Z,2.50
2022-09-12T06:31:05.139Z,2.28
2022-09-12T06:33:39.313Z,2.10
2022-09-12T06:36:13.554Z,3.70
2022-09-12T06:38:51.631Z,3.72
2022-09-12T06:41:24.231Z,3.97
2022-09-12T06:43:58.672Z,3.58
2022-09-12T06:46:33.830Z,2.35
2022-09-12T06:49:06.546Z,2.22
2022-09-12T06:51:38.564Z,3.08
2022-09-12T06:54:14.135Z,1.88
2022-09-12T06:56:46.250Z,2.85
2022-09-12T06:59:20.123Z,1.52
2022-09-12T07:01:52.198Z,2.78
2022-09-12T07:04:24.217Z,2.30
2022-09-12T07:06:56.168Z,1.98
2022-09-12T07:09:29.683Z,2.55
2022-09-12T07:12:04.433Z,1.83
2022-09-12T07:14:37.746Z,1.33
2022-09-12T07:17:09.760Z,1.30
2022-09-12T07:19:41.830Z,3.42
2022-09-12T07:22:14.002Z,1.50
2022-09-12T07:24:46.086Z,2.42
2022-09-12T07:27:18.031Z,1.58
2022-09-12T07:29:51.342Z,2.00
2022-09-12T07:32:23.860Z,0.80
2022-09-12T07:34:55.808Z,1.08
2022-09-12T07:37:31.139Z,2.05
2022-09-12T07:40:03.656Z,2.40
2022-09-12T07:42:35.952Z,2.13
2022-09-12T07:45:11.275Z,2.60
2022-09-12T07:47:43.767Z,1.55
2022-09-12T07:50:15.749Z,3.63
2022-09-12T07:52:47.676Z,3.03
2022-09-12T07:55:19.987Z,1.05
2022-09-12T07:57:52.450Z,1.70
2022-09-12T08:00:26.758Z,1.50
2022-09-12T08:02:58.712Z,2.63
2022-09-12T08:05:31.068Z,1.25
2022-09-12T08:08:03.676Z,2.08
2022-09-12T08:10:36.214Z,1.75
2022-09-12T08:13:10.707Z,1.45
2022-09-12T08:15:44.313Z,1.05
2022-09-12T08:18:16.321Z,1.35
2022-09-12T08:20:48.650Z,1.20
2022-09-12T08:23:23.417Z,1.40
2022-09-12T08:26:02.142Z,0.95
2022-09-12T08:28:37.117Z,1.65
2022-09-12T08:31:13.200Z,1.20
2022-09-12T08:33:45.380Z,1.30
2022-09-12T08:36:21.031Z,3.22
2022-09-12T08:38:59.279Z,1.63
2022-09-12T08:41:35.127Z,1.70
2022-09-12T08:44:36.480Z,0.98
2022-09-12T08:47:31.611Z,2.83
2022-09-12T08:50:12.300Z,3.17
2022-09-12T08:52:52.539Z,3.22
2022-09-12T08:55:35.781Z,0.85
2022-09-12T08:58:14.025Z,0.93
2022-09-12T09:00:54.057Z,3.40
2022-09-12T09:03:54.236Z,1.27
2022-09-12T09:06:41.605Z,1.50
2022-09-12T09:09:26.139Z,0.70
2022-09-12T09:12:07.260Z,1.90
2022-09-12T09:15:12.130Z,0.93
2022-09-12T09:17:48.141Z,0.77
2022-09-12T09:20:30.137Z,3.25
2022-09-12T09:23:06.577Z,1.50
2022-09-12T09:25:47.398Z,1.00
2022-09-12T09:28:22.702Z,1.20
2022-09-12T09:30:55.328Z,2.25
2022-09-12T09:33:31.054Z,1.25
2022-09-12T09:36:14.920Z,2.25
2022-09-12T09:38:49.761Z,3.50
2022-09-12T09:41:41.263Z,1.27
2022-09-12T09:44:13.413Z,1.08
2022-09-12T09:46:45.416Z,0.55
2022-09-12T09:49:18.374Z,0.70
2022-09-12T09:51:51.903Z,1.30
2022-09-12T09:54:26.951Z,2.83
2022-09-12T09:56:58.960Z,1.63
2022-09-12T09:59:32.581Z,2.88
2022-09-12T10:02:24.322Z,2.05
2022-09-12T10:04:58.403Z,1.40
2022-09-12T10:07:31.726Z,2.88
2022-09-12T10:10:06.795Z,1.17
2022-09-12T10:12:38.772Z,0.77
2022-09-12T10:15:20.896Z,1.05
2022-09-12T10:17:55.552Z,0.82
2022-09-12T10:20:32.534Z,1.05
2022-09-12T10:23:29.573Z,0.65
2022-09-12T10:26:05.203Z,1.33
2022-09-12T10:28:40.005Z,1.77
2022-09-12T10:31:16.730Z,0.52
2022-09-12T10:33:53.838Z,0.85
2022-09-12T10:36:34.843Z,1.13
2022-09-12T10:39:18.640Z,2.28
2022-09-12T10:41:50.705Z,0.73
2022-09-12T10:44:26.578Z,2.22
2022-09-12T10:47:00.141Z,1.80
2022-09-12T10:49:38.045Z,2.05
2022-09-12T10:52:18.459Z,0.52
2022-09-12T10:54:54.584Z,0.75
2022-09-12T10:57:52.730Z,0.52
2022-09-12T11:00:28.002Z,3.58
2022-09-12T11:03:10.193Z,0.50
2022-09-12T11:05:58.547Z,3.33
2022-09-12T11:08:44.444Z,1.40
2022-09-12T11:11:35.003Z,2.25
2022-09-12T11:14:28.061Z,0.90
2022-09-12T11:17:07.057Z,0.40
2022-09-12T11:20:14.536Z,1.00
2022-09-12T11:23:27.316Z,1.42
2022-09-12T11:26:07.585Z,0.80
2022-09-12T11:28:52.946Z,0.40
2022-09-12T11:31:49.310Z,1.17
2022-09-12T11:34:33.719Z,0.40
2022-09-12T11:37:30.724Z,0.50
2022-09-12T11:40:17.460Z,1.55
2022-09-12T11:42:54.634Z,0.55
2022-09-12T11:45:32.761Z,0.85
2022-09-12T11:48:12.098Z,1.20
2022-09-12T11:50:44.073Z,0.65
2022-09-12T11:53:22.213Z,1.20
2022-09-12T11:55:59.295Z,0.82
2022-09-12T11:58:31.477Z,1.13
2022-09-12T12:01:13.786Z,0.60
2022-09-12T12:03:47.703Z,3.30
2022-09-12T12:06:23.833Z,1.17
2022-09-12T12:08:56.188Z,1.55
2022-09-12T12:11:32.814Z,0.68
2022-09-12T12:14:07.896Z,0.77
2022-09-12T12:16:42.278Z,0.80
2022-09-12T12:19:33.944Z,0.90
2022-09-12T12:22:20.229Z,0.52
2022-09-12T12:25:29.858Z,0.50
2022-09-12T12:28:04.337Z,0.50
2022-09-12T12:31:01.291Z,0.52
2022-09-12T12:33:54.400Z,1.00
2022-09-12T12:36:36.348Z,1.23
2022-09-12T12:39:44.918Z,0.80
2022-09-12T12:43:02.532Z,2.20
2022-09-12T12:46:01.706Z,0.90
2022-09-12T12:49:11.101Z,0.82
2022-09-12T12:51:56.680Z,0.70
2022-09-12T12:54:34.975Z,0.60
2022-09-12T12:57:19.458Z,4.50
2022-09-12T12:59:54.687Z,2.88
2022-09-12T13:02:31.844Z,0.98
2022-09-12T13:05:16.209Z,0.70
2022-09-12T13:07:54.883Z,1.10
2022-09-12T13:10:29.766Z,1.88
2022-09-12T13:13:05.367Z,2.03
2022-09-12T13:15:51.702Z,1.35
2022-09-12T13:18:27.906Z,1.42
2022-09-12T13:21:14.774Z,1.10
2022-09-12T13:24:00.779Z,1.25
2022-09-12T13:26:41.593Z,2.15
2022-09-12T13:29:17.277Z,0.77
2022-09-12T13:31:53.090Z,1.27
2022-09-12T13:34:27.849Z,0.60
2022-09-12T13:37:40.248Z,0.40
2022-09-12T13:40:30.697Z,2.40
2022-09-12T13:45:44.124Z,0.70
2022-09-12T13:48:19.449Z,0.40
2022-09-12T13:50:54.931Z,0.47
2022-09-12T13:53:32.508Z,0.55
2022-09-12T13:56:04.453Z,1.10
2022-09-12T13:58:36.485Z,0.50
2022-09-12T14:01:13.588Z,0.60
2022-09-12T14:04:09.352Z,0.40
2022-09-12T14:06:47.746Z,0.50
2022-09-12T14:09:26.103Z,2.42
2022-09-12T14:11:59.069Z,0.38
2022-09-12T14:14:34.360Z,0.68
2022-09-12T14:17:18.939Z,0.50
2022-09-12T14:19:53.967Z,0.50
2022-09-12T14:22:29.405Z,0.45
2022-09-12T14:25:03.350Z,0.40
2022-09-12T14:27:45.668Z,0.30
2022-09-12T14:30:24.094Z,9.20
2022-09-12T14:33:18.124Z,1.17
2022-09-12T14:35:52.061Z,0.90
2022-09-12T14:38:35.226Z,3.05
2022-09-12T14:41:10.072Z,3.17
2022-09-12T14:43:45.879Z,2.13
2022-09-12T14:46:20.573Z,0.50
2022-09-12T14:48:55.000Z,2.72
2022-09-12T14:51:31.821Z,2.17
2022-09-12T14:54:04.296Z,0.50
2022-09-12T14:56:43.337Z,0.63
2022-09-12T14:59:28.741Z,0.50
2022-09-12T15:02:21.984Z,1.08
2022-09-12T15:05:14.423Z,0.85
2022-09-12T15:07:53.958Z,1.48
2022-09-12T15:10:31.108Z,0.63
2022-09-12T15:13:22.449Z,1.00
2022-09-12T15:15:56.006Z,0.90
2022-09-12T15:18:29.043Z,1.92
2022-09-12T15:21:02.891Z,1.67
2022-09-12T15:23:38.284Z,3.05
2022-09-12T15:26:12.844Z,1.35
2022-09-12T15:28:46.843Z,1.50
2022-09-12T15:31:24.702Z,2.85
2022-09-12T15:33:58.258Z,1.70
2022-09-12T15:36:30.385Z,1.67
2022-09-12T15:39:02.471Z,2.92
2022-09-12T15:41:37.032Z,3.20
2022-09-12T15:44:13.123Z,4.80
2022-09-12T15:46:45.295Z,2.65
2022-09-12T15:49:17.390Z,5.63
2022-09-12T15:51:49.339Z,1.63
2022-09-12T15:54:21.573Z,1.52
2022-09-12T15:56:53.526Z,1.40
2022-09-12T15:59:26.821Z,1.48
2022-09-12T16:01:59.185Z,1.90
2022-09-12T16:04:31.223Z,1.10
2022-09-12T16:07:03.440Z,1.58
2022-09-12T16:09:35.449Z,1.83
2022-09-12T16:12:07.495Z,2.17
2022-09-12T16:14:40.873Z,5.30
2022-09-12T16:17:13.118Z,8.05
2022-09-12T16:19:45.100Z,9.27
2022-09-12T16:22:17.083Z,10.18
2022-09-12T16:24:49.162Z,4.35
2022-09-12T16:27:21.094Z,5.55
2022-09-12T16:29:54.581Z,4.43
2022-09-12T16:32:26.635Z,2.60
2022-09-12T16:34:58.812Z,2.35
2022-09-12T16:37:32.129Z,2.75
2022-09-12T16:40:06.293Z,3.22
2022-09-12T16:42:43.555Z,3.05
2022-09-12T16:45:17.169Z,2.80
2022-09-12T16:47:49.057Z,2.78
2022-09-12T16:50:21.006Z,2.55
2022-09-12T16:52:52.908Z,1.73
2022-09-12T16:55:25.197Z,1.92
2022-09-12T16:57:57.099Z,1.77
2022-09-12T17:00:30.414Z,1.20
2022-09-12T17:03:02.359Z,4.93
2022-09-12T17:05:34.354Z,2.63
2022-09-12T17:08:06.333Z,3.90
2022-09-12T17:10:41.202Z,2.50
2022-09-12T17:13:13.077Z,2.78
2022-09-12T17:15:46.389Z,3.00
2022-09-12T17:18:18.862Z,1.90
2022-09-12T17:20:51.110Z,3.40
2022-09-12T17:23:23.016Z,2.70
2022-09-12T17:25:55.025Z,3.08
2022-09-12T17:28:27.297Z,5.65
2022-09-12T17:31:02.775Z,5.18
2022-09-12T17:33:35.214Z,2.85
2022-09-12T17:36:11.214Z,2.20
2022-09-12T17:38:44.480Z,4.22
2022-09-12T17:41:18.648Z,6.70
2022-09-12T17:43:52.546Z,3.88
2022-09-12T17:46:27.633Z,8.00
2022-09-12T17:49:01.014Z,9.00
2022-09-12T17:51:33.332Z,8.05
2022-09-12T17:54:08.136Z,4.90
2022-09-12T17:56:40.459Z,3.15
2022-09-12T17:59:15.687Z,2.55
2022-09-12T18:02:07.813Z,6.35
2022-09-12T18:04:40.964Z,3.38
2022-09-12T18:07:13.496Z,2.35
2022-09-12T18:09:49.296Z,2.55
2022-09-12T18:12:21.472Z,5.43
2022-09-12T18:14:53.369Z,9.98
2022-09-12T18:17:27.463Z,13.40
2022-09-12T18:19:59.399Z,10.10
2022-09-12T18:22:31.354Z,11.93
2022-09-12T18:25:03.395Z,7.78
2022-09-12T18:27:35.318Z,5.75
2022-09-12T18:30:21.084Z,7.35
2022-09-12T18:32:55.104Z,3.08
2022-09-12T18:35:27.174Z,4.05
2022-09-12T18:37:59.142Z,3.75
2022-09-12T18:40:31.204Z,4.63
2022-09-12T18:43:03.166Z,11.30
2022-09-12T18:45:35.758Z,6.53
2022-09-12T18:48:09.447Z,9.15
2022-09-12T18:50:41.344Z,5.90
2022-09-12T18:53:14.907Z,4.25
2022-09-12T18:55:46.837Z,3.53
2022-09-12T18:58:18.749Z,5.38
2022-09-12T19:00:50.683Z,4.65
2022-09-12T19:03:24.166Z,5.43
2022-09-12T19:05:56.062Z,10.98
2022-09-12T19:08:28.437Z,17.60
2022-09-12T19:11:00.440Z,57.05
2022-09-12T19:13:35.489Z,22.48
2022-09-12T19:16:09.718Z,11.55
2022-09-12T19:18:43.659Z,10.68
2022-09-12T19:21:17.560Z,41.85
2022-09-12T19:23:50.321Z,50.97
2022-09-12T19:26:22.990Z,21.55
2022-09-12T19:28:56.131Z,20.70
2022-09-12T19:31:28.094Z,13.00
2022-09-12T19:34:02.603Z,6.78
2022-09-12T19:36:50.140Z,6.03
2022-09-12T19:39:23.938Z,5.03
2022-09-12T19:41:55.824Z,4.75
2022-09-12T19:44:29.192Z,7.70
2022-09-12T19:47:01.107Z,6.07
2022-09-12T19:49:34.433Z,8.45
2022-09-12T19:52:06.435Z,11.10
2022-09-12T19:54:38.985Z,13.25
2022-09-12T19:57:11.337Z,10.18
2022-09-12T19:59:45.146Z,4.63
2022-09-12T20:02:17.210Z,5.18
2022-09-12T20:04:50.868Z,6.75
2022-09-12T20:07:22.792Z,7.10
2022-09-12T20:09:55.305Z,8.75
2022-09-12T20:12:27.242Z,4.43
2022-09-12T20:14:59.218Z,5.63
2022-09-12T20:17:31.628Z,2.97
2022-09-12T20:20:08.215Z,3.75
2022-09-12T20:22:40.406Z,3.47
2022-09-12T20:25:12.436Z,2.42
2022-09-12T20:27:44.353Z,4.30
2022-09-12T20:30:16.578Z,3.70
2022-09-12T20:32:49.566Z,3.60
2022-09-12T20:35:23.272Z,4.13
2022-09-12T20:37:55.187Z,4.78
2022-09-12T20:40:27.186Z,4.45
2022-09-12T20:42:59.112Z,3.00
2022-09-12T20:45:31.134Z,4.55
2022-09-12T20:48:03.383Z,5.35
2022-09-12T20:50:36.715Z,4.85
2022-09-12T20:53:08.754Z,3.45
2022-09-12T20:55:40.728Z,5.50
2022-09-12T20:58:13.647Z,4.82
2022-09-12T21:00:45.860Z,3.78
2022-09-12T21:03:18.451Z,4.65
2022-09-12T21:05:52.251Z,7.45
2022-09-12T21:08:24.153Z,4.03
2022-09-12T21:10:58.083Z,3.95
2022-09-12T21:13:30.089Z,5.07
2022-09-12T21:16:03.723Z,4.10
2022-09-12T21:18:36.305Z,3.97
2022-09-12T21:21:10.605Z,9.98
2022-09-12T21:23:42.575Z,10.63
2022-09-12T21:26:14.642Z,12.40
2022-09-12T21:28:46.571Z,14.82
2022-09-12T21:31:18.601Z,13.20
2022-09-12T21:33:50.711Z,17.17
2022-09-12T21:36:24.593Z,18.35
2022-09-12T21:38:58.241Z,25.48
2022-09-12T21:41:30.169Z,23.92
2022-09-12T21:44:02.736Z,20.15
2022-09-12T21:46:34.728Z,20.88
2022-09-12T21:49:06.828Z,16.02
2022-09-12T21:51:40.514Z,14.90
2022-09-12T21:54:12.463Z,11.25
2022-09-12T21:56:44.516Z,7.13
2022-09-12T21:59:16.455Z,10.10
2022-09-12T22:01:48.411Z,13.60
2022-09-12T22:04:20.547Z,13.18
2022-09-12T22:06:53.867Z,10.65
2022-09-12T22:09:25.919Z,11.43
2022-09-12T22:11:57.859Z,10.38
2022-09-12T22:14:29.791Z,13.45
2022-09-12T22:17:01.995Z,11.40
2022-09-12T22:19:34.169Z,9.93
2022-09-12T22:22:46.386Z,9.50
2022-09-12T22:25:19.323Z,10.65
2022-09-12T22:27:51.816Z,9.70
2022-09-12T22:30:23.882Z,8.93
2022-09-12T22:32:55.887Z,11.57
2022-09-12T22:35:27.800Z,7.13
2022-09-12T22:38:01.093Z,13.45
2022-09-12T22:40:33.305Z,13.98
2022-09-12T22:43:05.755Z,9.30
2022-09-12T22:45:41.171Z,8.25
2022-09-12T22:48:13.145Z,6.47
2022-09-12T22:50:45.799Z,5.47
2022-09-12T22:53:19.303Z,8.27
2022-09-12T22:55:51.189Z,9.25
2022-09-12T22:58:23.203Z,7.35
2022-09-12T23:00:55.170Z,9.52
2022-09-12T23:03:27.267Z,6.68
2022-09-12T23:05:59.272Z,2.42
2022-09-12T23:08:34.693Z,8.27
2022-09-12T23:11:09.438Z,4.43
2022-09-12T23:13:42.796Z,3.33
2022-09-12T23:16:17.085Z,3.45
2022-09-12T23:18:49.622Z,3.58
2022-09-12T23:21:22.164Z,5.20
2022-09-12T23:23:56.496Z,3.35
2022-09-12T23:26:28.448Z,2.97
2022-09-12T23:29:01.990Z,4.00
2022-09-12T23:31:34.819Z,3.95
2022-09-12T23:34:06.840Z,3.00
2022-09-12T23:36:38.739Z,5.25
2022-09-12T23:39:12.283Z,5.18
2022-09-12T23:41:44.205Z,5.43
2022-09-12T23:44:16.426Z,3.20
2022-09-12T23:46:48.341Z,3.45
2022-09-12T23:49:20.316Z,8.55
2022-09-12T23:51:52.225Z,5.93
2022-09-12T23:54:25.747Z,4.45
2022-09-12T23:56:57.613Z,3.45
2022-09-12T23:59:31.086Z,3.75
